Time,TemperatureF,DewpointF,PressureIn,WindDirection,WindDirectionDegrees,WindSpeedMPH,WindSpeedGustMPH,Humidity,HourlyPrecipIn,Conditions,Clouds,dailyrainin,SoftwareType,DateUTC
2013-06-18 00:01:00,58.2,56.5,29.89,WNW,297,2.0,2.0,94,0.00,,---,0.00,VWS V14.01,2013-06-18 04:01:00,
2013-06-18 00:02:00,58.2,56.5,29.89,WNW,298,1.0,2.0,94,0.00,,---,0.00,VWS V14.01,2013-06-18 04:02:00,
2013-06-18 00:04:00,58.0,56.0,29.89,WNW,296,1.0,2.0,93,0.00,,---,0.00,VWS V14.01,2013-06-18 04:04:00,
2013-06-18 00:06:00,57.8,55.8,29.89,WNW,295,1.0,2.0,93,0.00,,---,0.00,VWS V14.01,2013-06-18 04:06:00,
2013-06-18 00:11:00,57.5,55.8,29.89,West,277,1.0,1.0,94,0.00,,---,0.00,VWS V14.01,2013-06-18 04:11:00,
2013-06-18 00:16:00,57.5,56.1,29.90,WNW,290,1.0,2.0,95,0.00,,---,0.00,VWS V14.01,2013-06-18 04:16:00,
2013-06-18 00:21:00,57.3,55.9,29.90,WNW,290,1.0,2.0,95,0.00,,---,0.00,VWS V14.01,2013-06-18 04:21:00,
2013-06-18 00:26:00,57.2,55.5,29.90,NW,312,1.0,3.0,94,0.00,,---,0.00,VWS V14.01,2013-06-18 04:26:00,
2013-06-18 00:31:00,57.1,55.7,29.90,WNW,298,1.0,2.0,95,0.00,,---,0.00,VWS V14.01,2013-06-18 04:31:00,
2013-06-18 00:36:00,57.0,55.6,29.89,NW,309,2.0,2.0,95,0.00,,---,0.00,VWS V14.01,2013-06-18 04:36:00,
2013-06-18 00:41:00,56.7,55.0,29.89,NW,308,2.0,2.0,94,0.00,,---,0.00,VWS V14.01,2013-06-18 04:41:00,
2013-06-18 00:46:00,56.7,55.3,29.89,WNW,302,2.0,2.0,95,0.00,,---,0.00,VWS V14.01,2013-06-18 04:46:00,
2013-06-18 00:51:00,56.8,55.4,29.89,NW,311,1.0,2.0,95,0.00,,---,0.00,VWS V14.01,2013-06-18 04:51:00,
2013-06-18 00:56:00,56.7,55.3,29.89,NW,311,1.0,2.0,95,0.00,,---,0.00,VWS V14.01,2013-06-18 04:56:00,
2013-06-18 01:01:00,56.7,55.3,29.89,NW,311,0.0,2.0,95,0.00,,---,0.00,VWS V14.01,2013-06-18 05:01:00,
2013-06-18 01:06:00,56.6,54.9,29.89,WNW,291,1.0,2.0,94,0.00,,---,0.00,VWS V14.01,2013-06-18 05:06:00,
2013-06-18 01:11:00,56.7,55.3,29.89,NW,314,1.0,2.0,95,0.00,,---,0.00,VWS V14.01,2013-06-18 05:11:00,
2013-06-18 01:16:00,56.6,54.9,29.88,NW,306,1.0,2.0,94,0.00,,---,0.00,VWS V14.01,2013-06-18 05:16:00,
2013-06-18 01:21:00,56.4,54.7,29.88,WNW,302,1.0,2.0,94,0.00,,---,0.00,VWS V14.01,2013-06-18 05:21:00,
2013-06-18 01:26:00,56.4,55.0,29.88,NNW,338,0.0,1.0,95,0.00,,---,0.00,VWS V14.01,2013-06-18 05:26:00,
2013-06-18 01:31:00,56.4,54.7,29.88,NW,322,1.0,3.0,94,0.00,,---,0.00,VWS V14.01,2013-06-18 05:31:00,
2013-06-18 01:36:00,56.0,54.3,29.89,NW,310,2.0,2.0,94,0.00,,---,0.00,VWS V14.01,2013-06-18 05:36:00,
2013-06-18 01:41:00,55.9,54.5,29.89,NW,309,2.0,3.0,95,0.00,,---,0.00,VWS V14.01,2013-06-18 05:41:00,
2013-06-18 01:47:00,55.8,54.1,29.89,WNW,298,2.0,2.0,94,0.00,,---,0.00,VWS V14.01,2013-06-18 05:47:00,
2013-06-18 01:53:00,55.9,54.2,29.89,WNW,288,1.0,4.0,94,0.00,,---,0.00,VWS V14.01,2013-06-18 05:53:00,
2013-06-18 01:59:00,55.7,53.7,29.89,WNW,288,0.0,1.0,93,0.00,,---,0.00,VWS V14.01,2013-06-18 05:59:00,
2013-06-18 02:04:00,55.2,53.5,29.88,WNW,288,0.0,1.0,94,0.00,,---,0.00,VWS V14.01,2013-06-18 06:04:00,
2013-06-18 02:09:00,55.0,53.6,29.88,WNW,288,0.0,1.0,95,0.00,,---,0.00,VWS V14.01,2013-06-18 06:09:00,
2013-06-18 02:14:00,54.8,53.4,29.87,WNW,288,0.0,0.0,95,0.00,,---,0.00,VWS V14.01,2013-06-18 06:14:00,
2013-06-18 02:19:00,54.6,53.2,29.87,WNW,288,1.0,1.0,95,0.00,,---,0.00,VWS V14.01,2013-06-18 06:19:00,
2013-06-18 02:24:00,54.3,52.9,29.87,WNW,288,1.0,1.0,95,0.00,,---,0.00,VWS V14.01,2013-06-18 06:24:00,
2013-06-18 02:29:00,54.0,52.9,29.88,WNW,288,1.0,1.0,96,0.00,,---,0.00,VWS V14.01,2013-06-18 06:29:00,
2013-06-18 02:34:00,53.8,52.7,29.88,WNW,288,0.0,1.0,96,0.00,,---,0.00,VWS V14.01,2013-06-18 06:34:00,
2013-06-18 02:39:00,54.0,53.2,29.88,WNW,300,1.0,3.0,97,0.00,,---,0.00,VWS V14.01,2013-06-18 06:39:00,
2013-06-18 02:44:00,54.5,53.7,29.87,WNW,290,2.0,3.0,97,0.00,,---,0.00,VWS V14.01,2013-06-18 06:44:00,
2013-06-18 02:49:00,55.1,54.5,29.87,WNW,291,1.0,3.0,98,0.00,,---,0.00,VWS V14.01,2013-06-18 06:49:00,
2013-06-18 02:54:00,55.6,54.8,29.87,WNW,298,0.0,2.0,97,0.00,,---,0.00,VWS V14.01,2013-06-18 06:54:00,
2013-06-18 02:59:00,55.9,55.1,29.87,WNW,298,1.0,1.0,97,0.00,,---,0.00,VWS V14.01,2013-06-18 06:59:00,
2013-06-18 03:04:00,56.1,55.0,29.87,WNW,297,0.0,1.0,96,0.00,,---,0.00,VWS V14.01,2013-06-18 07:04:00,
2013-06-18 03:09:00,56.1,55.0,29.87,WNW,298,0.0,0.0,96,0.00,,---,0.00,VWS V14.01,2013-06-18 07:09:00,
2013-06-18 03:14:00,56.2,55.1,29.87,NNE,15,1.0,1.0,96,0.00,,---,0.00,VWS V14.01,2013-06-18 07:14:00,
2013-06-18 03:19:00,56.3,55.2,29.87,ENE,77,1.0,2.0,96,0.00,,---,0.00,VWS V14.01,2013-06-18 07:19:00,
2013-06-18 03:24:00,56.3,55.2,29.87,East,84,3.0,3.0,96,0.00,,---,0.00,VWS V14.01,2013-06-18 07:24:00,
2013-06-18 03:29:00,56.3,55.2,29.87,East,85,1.0,3.0,96,0.00,,---,0.00,VWS V14.01,2013-06-18 07:29:00,
2013-06-18 03:34:00,56.1,55.0,29.87,East,89,1.0,2.0,96,0.00,,---,0.00,VWS V14.01,2013-06-18 07:34:00,
2013-06-18 03:39:00,55.9,54.8,29.87,East,89,0.0,1.0,96,0.00,,---,0.00,VWS V14.01,2013-06-18 07:39:00,
2013-06-18 03:44:00,56.1,55.0,29.87,East,84,3.0,4.0,96,0.00,,---,0.00,VWS V14.01,2013-06-18 07:44:00,
2013-06-18 03:49:00,56.6,55.5,29.87,NE,47,1.0,3.0,96,0.00,,---,0.00,VWS V14.01,2013-06-18 07:49:00,
2013-06-18 03:54:00,56.6,54.9,29.87,North,349,0.0,1.0,94,0.00,,---,0.00,VWS V14.01,2013-06-18 07:54:00,
2013-06-18 03:59:00,56.2,54.5,29.87,North,358,2.0,2.0,94,0.00,,---,0.00,VWS V14.01,2013-06-18 07:59:00,
2013-06-18 04:04:00,56.2,54.8,29.87,NNE,31,0.0,3.0,95,0.00,,---,0.00,VWS V14.01,2013-06-18 08:04:00,
2013-06-18 04:09:00,56.1,54.7,29.87,North,4,1.0,3.0,95,0.00,,---,0.00,VWS V14.01,2013-06-18 08:09:00,
2013-06-18 04:14:00,55.8,54.4,29.87,ENE,74,0.0,5.0,95,0.00,,---,0.00,VWS V14.01,2013-06-18 08:14:00,
2013-06-18 04:19:00,55.4,54.0,29.87,ENE,73,1.0,1.0,95,0.00,,---,0.00,VWS V14.01,2013-06-18 08:19:00,
2013-06-18 04:24:00,55.1,54.0,29.87,ENE,68,0.0,2.0,96,0.00,,---,0.00,VWS V14.01,2013-06-18 08:24:00,
2013-06-18 04:29:00,54.9,53.8,29.87,NNE,23,0.0,1.0,96,0.00,,---,0.00,VWS V14.01,2013-06-18 08:29:00,
2013-06-18 04:34:00,54.7,53.6,29.87,NE,39,1.0,1.0,96,0.00,,---,0.00,VWS V14.01,2013-06-18 08:34:00,
2013-06-18 04:39:00,54.7,53.6,29.87,NE,41,1.0,1.0,96,0.00,,---,0.00,VWS V14.01,2013-06-18 08:39:00,
2013-06-18 04:44:00,54.6,53.8,29.88,NNE,22,0.0,2.0,97,0.00,,---,0.00,VWS V14.01,2013-06-18 08:44:00,
2013-06-18 04:49:00,54.6,53.8,29.88,ENE,75,1.0,3.0,97,0.00,,---,0.00,VWS V14.01,2013-06-18 08:49:00,
2013-06-18 04:54:00,54.5,53.7,29.88,ENE,58,0.0,2.0,97,0.00,,---,0.00,VWS V14.01,2013-06-18 08:54:00,
2013-06-18 04:59:00,54.4,53.6,29.88,North,360,0.0,1.0,97,0.00,,---,0.00,VWS V14.01,2013-06-18 08:59:00,
2013-06-18 05:04:00,54.5,53.7,29.87,ENE,58,1.0,2.0,97,0.00,,---,0.00,VWS V14.01,2013-06-18 09:04:00,
2013-06-18 05:09:00,54.6,53.8,29.87,NNE,20,0.0,3.0,97,0.00,,---,0.00,VWS V14.01,2013-06-18 09:09:00,
2013-06-18 05:14:00,54.6,53.8,29.87,NNE,20,2.0,2.0,97,0.00,,---,0.00,VWS V14.01,2013-06-18 09:14:00,
2013-06-18 05:19:00,54.7,53.9,29.87,NNE,20,1.0,2.0,97,0.00,,---,0.00,VWS V14.01,2013-06-18 09:19:00,
2013-06-18 05:24:00,54.4,53.3,29.87,NW,310,1.0,1.0,96,0.00,,---,0.00,VWS V14.01,2013-06-18 09:24:00,
2013-06-18 05:29:00,53.7,52.6,29.88,WNW,294,1.0,1.0,96,0.00,,---,0.00,VWS V14.01,2013-06-18 09:29:00,
2013-06-18 05:34:00,53.5,52.4,29.87,WNW,291,0.0,1.0,96,0.00,,---,0.00,VWS V14.01,2013-06-18 09:34:00,
2013-06-18 05:39:00,53.3,52.5,29.88,WNW,287,1.0,2.0,97,0.00,,---,0.00,VWS V14.01,2013-06-18 09:39:00,
2013-06-18 05:44:00,53.2,52.4,29.88,WNW,284,0.0,1.0,97,0.00,,---,0.00,VWS V14.01,2013-06-18 09:44:00,
2013-06-18 05:49:00,53.0,52.2,29.88,WNW,284,0.0,1.0,97,0.00,,---,0.00,VWS V14.01,2013-06-18 09:49:00,
2013-06-18 05:54:00,52.9,52.1,29.88,WNW,294,0.0,2.0,97,0.01,,---,0.01,VWS V14.01,2013-06-18 09:54:00,
2013-06-18 06:00:00,52.9,52.1,29.88,NE,47,0.0,3.0,97,0.01,,---,0.01,VWS V14.01,2013-06-18 10:00:00,
2013-06-18 06:05:00,53.0,52.2,29.88,NE,51,0.0,1.0,97,0.01,,---,0.01,VWS V14.01,2013-06-18 10:05:00,
2013-06-18 06:10:00,53.3,52.8,29.88,NNW,328,0.0,3.0,98,0.01,,---,0.01,VWS V14.01,2013-06-18 10:10:00,
2013-06-18 06:15:00,53.4,52.8,29.88,NNW,342,0.0,1.0,98,0.01,,---,0.01,VWS V14.01,2013-06-18 10:15:00,
2013-06-18 06:20:00,53.5,53.0,29.88,NW,318,1.0,2.0,98,0.01,,---,0.01,VWS V14.01,2013-06-18 10:20:00,
2013-06-18 06:25:00,53.6,53.0,29.88,WNW,284,2.0,2.0,98,0.01,,---,0.01,VWS V14.01,2013-06-18 10:25:00,
2013-06-18 06:30:00,53.7,53.2,29.88,WNW,288,1.0,2.0,98,0.01,,---,0.01,VWS V14.01,2013-06-18 10:30:00,
2013-06-18 06:35:00,54.1,53.5,29.89,NW,322,1.0,3.0,98,0.01,,---,0.01,VWS V14.01,2013-06-18 10:35:00,
2013-06-18 06:40:00,54.4,53.8,29.89,NW,314,1.0,3.0,98,0.01,,---,0.01,VWS V14.01,2013-06-18 10:40:00,
2013-06-18 06:45:00,54.8,54.2,29.89,NW,314,1.0,3.0,98,0.01,,---,0.01,VWS V14.01,2013-06-18 10:45:00,
2013-06-18 06:50:00,54.9,54.1,29.89,NNW,334,2.0,5.0,97,0.01,,---,0.01,VWS V14.01,2013-06-18 10:50:00,
2013-06-18 06:55:00,54.9,54.1,29.89,NNW,328,2.0,5.0,97,0.00,,---,0.01,VWS V14.01,2013-06-18 10:55:00,
2013-06-18 07:00:00,54.6,53.8,29.89,NW,305,2.0,6.0,97,0.00,,---,0.01,VWS V14.01,2013-06-18 11:00:00,
2013-06-18 07:05:00,54.7,53.9,29.89,NNW,334,4.0,6.0,97,0.00,,---,0.01,VWS V14.01,2013-06-18 11:05:00,
2013-06-18 07:10:00,54.8,54.2,29.89,NNE,13,1.0,4.0,98,0.00,,---,0.01,VWS V14.01,2013-06-18 11:10:00,
2013-06-18 07:15:00,55.1,54.5,29.89,NW,305,2.0,5.0,98,0.00,,---,0.01,VWS V14.01,2013-06-18 11:15:00,
2013-06-18 07:20:00,55.1,54.5,29.89,WNW,293,2.0,3.0,98,0.00,,---,0.01,VWS V14.01,2013-06-18 11:20:00,
2013-06-18 07:25:00,55.4,54.8,29.89,West,280,1.0,3.0,98,0.00,,---,0.01,VWS V14.01,2013-06-18 11:25:00,
2013-06-18 07:30:00,55.5,55.0,29.89,West,280,2.0,5.0,98,0.00,,---,0.01,VWS V14.01,2013-06-18 11:30:00,
2013-06-18 07:35:00,55.8,55.2,29.89,WNW,288,0.0,3.0,98,0.00,,---,0.01,VWS V14.01,2013-06-18 11:35:00,
2013-06-18 07:40:00,56.2,55.7,29.89,NNW,332,1.0,2.0,98,0.00,,---,0.01,VWS V14.01,2013-06-18 11:40:00,
2013-06-18 07:45:00,56.2,55.4,29.90,NW,316,4.0,5.0,97,0.00,,---,0.01,VWS V14.01,2013-06-18 11:45:00,
2013-06-18 07:50:00,56.4,55.6,29.90,NW,309,2.0,4.0,97,0.00,,---,0.01,VWS V14.01,2013-06-18 11:50:00,
2013-06-18 07:55:00,56.3,55.5,29.90,NW,306,2.0,4.0,97,0.00,,---,0.01,VWS V14.01,2013-06-18 11:55:00,
2013-06-18 08:00:00,56.6,55.5,29.90,North,11,2.0,5.0,96,0.00,,---,0.01,VWS V14.01,2013-06-18 12:00:00,
2013-06-18 08:05:00,57.0,55.9,29.90,WNW,297,3.0,4.0,96,0.00,,---,0.01,VWS V14.01,2013-06-18 12:05:00,
2013-06-18 08:11:00,57.1,55.7,29.90,WNW,297,3.0,4.0,95,0.00,,---,0.01,VWS V14.01,2013-06-18 12:11:00,
2013-06-18 08:16:00,57.0,55.3,29.90,NNW,334,1.0,3.0,94,0.00,,---,0.01,VWS V14.01,2013-06-18 12:16:00,
2013-06-18 08:21:00,57.0,55.3,29.90,NNW,335,0.0,1.0,94,0.00,,---,0.01,VWS V14.01,2013-06-18 12:21:00,
2013-06-18 08:26:00,57.2,55.5,29.90,NNW,342,0.0,0.0,94,0.00,,---,0.01,VWS V14.01,2013-06-18 12:26:00,
2013-06-18 08:31:00,57.5,55.8,29.90,West,280,0.0,1.0,94,0.00,,---,0.01,VWS V14.01,2013-06-18 12:31:00,
2013-06-18 08:36:00,57.7,56.0,29.90,NW,307,0.0,2.0,94,0.00,,---,0.01,VWS V14.01,2013-06-18 12:36:00,
2013-06-18 08:41:00,58.0,56.3,29.90,West,277,0.0,1.0,94,0.00,,---,0.01,VWS V14.01,2013-06-18 12:41:00,
2013-06-18 08:46:00,58.5,57.1,29.90,SSE,158,1.0,2.0,95,0.00,,---,0.01,VWS V14.01,2013-06-18 12:46:00,
2013-06-18 08:51:00,58.8,57.1,29.90,SE,143,2.0,3.0,94,0.00,,---,0.01,VWS V14.01,2013-06-18 12:51:00,
2013-06-18 08:56:00,59.1,57.1,29.90,SE,133,1.0,3.0,93,0.00,,---,0.01,VWS V14.01,2013-06-18 12:56:00,
2013-06-18 09:01:00,59.5,57.8,29.90,SE,126,2.0,2.0,94,0.00,,---,0.01,VWS V14.01,2013-06-18 13:01:00,
2013-06-18 09:06:00,60.1,58.4,29.90,SE,125,1.0,2.0,94,0.00,,---,0.01,VWS V14.01,2013-06-18 13:06:00,
2013-06-18 09:11:00,60.9,59.2,29.89,SE,146,2.0,3.0,94,0.00,,---,0.01,VWS V14.01,2013-06-18 13:11:00,
2013-06-18 09:16:00,61.6,59.0,29.89,SE,131,1.0,4.0,91,0.00,,---,0.01,VWS V14.01,2013-06-18 13:16:00,
2013-06-18 09:21:00,62.2,59.2,29.90,South,174,3.0,4.0,90,0.00,,---,0.01,VWS V14.01,2013-06-18 13:21:00,
2013-06-18 09:26:00,62.7,59.1,29.90,ESE,121,1.0,5.0,88,0.00,,---,0.01,VWS V14.01,2013-06-18 13:26:00,
2013-06-18 09:31:00,63.0,59.4,29.90,SSE,165,2.0,5.0,88,0.00,,---,0.01,VWS V14.01,2013-06-18 13:31:00,
2013-06-18 09:36:00,63.0,59.1,29.90,SSE,152,2.0,4.0,87,0.00,,---,0.01,VWS V14.01,2013-06-18 13:36:00,
2013-06-18 09:41:00,63.1,59.2,29.90,SE,143,1.0,4.0,87,0.00,,---,0.01,VWS V14.01,2013-06-18 13:41:00,
2013-06-18 09:46:00,63.2,59.3,29.90,East,99,3.0,4.0,87,0.00,,---,0.01,VWS V14.01,2013-06-18 13:46:00,
2013-06-18 09:51:00,63.0,59.1,29.90,SE,128,3.0,4.0,87,0.00,,---,0.01,VWS V14.01,2013-06-18 13:51:00,
2013-06-18 09:56:00,62.7,59.1,29.90,SSE,158,4.0,5.0,88,0.00,,---,0.01,VWS V14.01,2013-06-18 13:56:00,
2013-06-18 10:01:00,62.6,59.0,29.90,SE,133,2.0,4.0,88,0.00,,---,0.01,VWS V14.01,2013-06-18 14:01:00,
2013-06-18 10:06:00,62.7,59.1,29.90,SSE,166,3.0,4.0,88,0.00,,---,0.01,VWS V14.01,2013-06-18 14:06:00,
2013-06-18 10:11:00,62.6,58.7,29.90,SSE,150,4.0,4.0,87,0.00,,---,0.01,VWS V14.01,2013-06-18 14:11:00,
2013-06-18 10:16:00,62.4,58.8,29.91,ESE,110,0.0,3.0,88,0.00,,---,0.01,VWS V14.01,2013-06-18 14:16:00,
2013-06-18 10:21:00,62.2,58.3,29.91,SW,231,0.0,2.0,87,0.00,,---,0.01,VWS V14.01,2013-06-18 14:21:00,
2013-06-18 10:26:00,61.5,57.3,29.91,NW,320,2.0,7.0,86,0.00,,---,0.01,VWS V14.01,2013-06-18 14:26:00,
2013-06-18 10:31:00,60.6,57.0,29.91,ENE,57,1.0,3.0,88,0.00,,---,0.01,VWS V14.01,2013-06-18 14:31:00,
2013-06-18 10:36:00,60.1,56.8,29.91,NNW,328,1.0,3.0,89,0.00,,---,0.01,VWS V14.01,2013-06-18 14:36:00,
2013-06-18 10:41:00,59.9,57.0,29.91,NE,39,3.0,3.0,90,0.00,,---,0.01,VWS V14.01,2013-06-18 14:41:00,
2013-06-18 10:46:00,59.5,56.3,29.91,NE,43,0.0,4.0,89,0.00,,---,0.01,VWS V14.01,2013-06-18 14:46:00,
2013-06-18 10:51:00,59.1,55.9,29.91,NNE,29,1.0,4.0,89,0.00,,---,0.01,VWS V14.01,2013-06-18 14:51:00,
2013-06-18 10:56:00,59.1,56.2,29.91,ENE,70,2.0,3.0,90,0.00,,---,0.01,VWS V14.01,2013-06-18 14:56:00,
2013-06-18 11:01:00,59.0,56.1,29.91,North,356,3.0,4.0,90,0.00,,---,0.01,VWS V14.01,2013-06-18 15:01:00,
2013-06-18 11:06:00,58.8,55.9,29.91,North,11,1.0,4.0,90,0.00,,---,0.01,VWS V14.01,2013-06-18 15:06:00,
2013-06-18 11:11:00,59.0,56.4,29.91,NNW,347,0.0,2.0,91,0.00,,---,0.01,VWS V14.01,2013-06-18 15:11:00,
2013-06-18 11:16:00,59.4,56.5,29.91,North,11,1.0,2.0,90,0.00,,---,0.01,VWS V14.01,2013-06-18 15:16:00,
2013-06-18 11:21:00,59.3,56.1,29.91,North,354,3.0,5.0,89,0.00,,---,0.01,VWS V14.01,2013-06-18 15:21:00,
2013-06-18 11:26:00,59.2,55.7,29.92,NW,323,4.0,7.0,88,0.00,,---,0.01,VWS V14.01,2013-06-18 15:26:00,
2013-06-18 11:31:00,58.6,55.1,29.92,NNW,342,2.0,11.0,88,0.00,,---,0.01,VWS V14.01,2013-06-18 15:31:00,
2013-06-18 11:36:00,59.0,56.1,29.91,NE,43,7.0,10.0,90,0.00,,---,0.01,VWS V14.01,2013-06-18 15:36:00,
2013-06-18 11:41:00,59.0,55.5,29.91,NNE,15,5.0,13.0,88,0.00,,---,0.01,VWS V14.01,2013-06-18 15:41:00,
2013-06-18 11:46:00,59.4,55.5,29.91,North,356,4.0,11.0,87,0.00,,---,0.01,VWS V14.01,2013-06-18 15:46:00,
2013-06-18 11:51:00,59.5,54.7,29.91,NNW,328,5.0,12.0,84,0.00,,---,0.01,VWS V14.01,2013-06-18 15:51:00,
2013-06-18 11:56:00,59.2,55.0,29.91,NW,322,7.0,12.0,86,0.00,,---,0.01,VWS V14.01,2013-06-18 15:56:00,
2013-06-18 12:01:00,59.5,56.0,29.91,NNW,328,4.0,12.0,88,0.00,,---,0.01,VWS V14.01,2013-06-18 16:01:00,
2013-06-18 12:06:00,59.9,55.7,29.92,East,92,3.0,11.0,86,0.00,,---,0.01,VWS V14.01,2013-06-18 16:06:00,
2013-06-18 12:11:00,60.1,55.6,29.92,ENE,58,5.0,9.0,85,0.00,,---,0.01,VWS V14.01,2013-06-18 16:11:00,
2013-06-18 12:16:00,60.2,55.3,29.92,East,100,7.0,10.0,84,0.00,,---,0.01,VWS V14.01,2013-06-18 16:16:00,
2013-06-18 12:21:00,60.0,55.5,29.92,NNW,338,6.0,15.0,85,0.00,,---,0.01,VWS V14.01,2013-06-18 16:21:00,
2013-06-18 12:27:00,59.7,55.2,29.91,NE,55,2.0,11.0,85,0.00,,---,0.01,VWS V14.01,2013-06-18 16:27:00,
2013-06-18 12:32:00,59.7,55.2,29.92,ENE,58,4.0,13.0,85,0.00,,---,0.01,VWS V14.01,2013-06-18 16:32:00,
2013-06-18 12:37:00,59.6,54.8,29.91,North,4,6.0,12.0,84,0.00,,---,0.01,VWS V14.01,2013-06-18 16:37:00,
2013-06-18 12:42:00,60.1,56.2,29.91,NNW,334,4.0,9.0,87,0.00,,---,0.01,VWS V14.01,2013-06-18 16:42:00,
2013-06-18 12:47:00,60.2,55.3,29.92,ENE,77,3.0,12.0,84,0.00,,---,0.01,VWS V14.01,2013-06-18 16:47:00,
2013-06-18 12:52:00,60.8,56.9,29.92,NNW,332,4.0,10.0,87,0.00,,---,0.01,VWS V14.01,2013-06-18 16:52:00,
2013-06-18 12:57:00,60.4,55.9,29.91,North,356,8.0,13.0,85,0.00,,---,0.01,VWS V14.01,2013-06-18 16:57:00,
2013-06-18 13:02:00,60.0,55.5,29.91,NE,46,6.0,12.0,85,0.00,,---,0.01,VWS V14.01,2013-06-18 17:02:00,
2013-06-18 13:07:00,60.2,55.3,29.91,NNE,26,13.0,13.0,84,0.00,,---,0.01,VWS V14.01,2013-06-18 17:07:00,
2013-06-18 13:12:00,59.5,54.7,29.91,NE,39,4.0,13.0,84,0.00,,---,0.01,VWS V14.01,2013-06-18 17:12:00,
2013-06-18 13:17:00,59.7,55.2,29.91,NE,53,4.0,9.0,85,0.00,,---,0.01,VWS V14.01,2013-06-18 17:17:00,
2013-06-18 13:22:00,59.3,54.8,29.91,NE,51,9.0,10.0,85,0.00,,---,0.01,VWS V14.01,2013-06-18 17:22:00,
2013-06-18 13:27:00,58.9,54.4,29.91,NNE,15,6.0,10.0,85,0.00,,---,0.01,VWS V14.01,2013-06-18 17:27:00,
2013-06-18 13:32:00,58.6,54.4,29.91,North,3,4.0,9.0,86,0.00,,---,0.01,VWS V14.01,2013-06-18 17:32:00,
2013-06-18 13:37:00,58.5,54.7,29.91,ENE,63,3.0,7.0,87,0.00,,---,0.01,VWS V14.01,2013-06-18 17:37:00,
2013-06-18 13:42:00,58.7,54.5,29.91,ENE,60,9.0,9.0,86,0.00,,---,0.01,VWS V14.01,2013-06-18 17:42:00,
2013-06-18 13:47:00,59.0,54.8,29.91,NNE,16,3.0,8.0,86,0.00,,---,0.01,VWS V14.01,2013-06-18 17:47:00,
2013-06-18 13:52:00,59.0,54.5,29.91,NNE,15,8.0,13.0,85,0.00,,---,0.01,VWS V14.01,2013-06-18 17:52:00,
2013-06-18 13:57:00,59.2,54.7,29.90,ENE,68,3.0,10.0,85,0.00,,---,0.01,VWS V14.01,2013-06-18 17:57:00,
2013-06-18 14:02:00,59.7,55.5,29.90,NNW,339,7.0,13.0,86,0.00,,---,0.01,VWS V14.01,2013-06-18 18:02:00,
2013-06-18 14:07:00,60.2,56.3,29.90,NNE,18,3.0,10.0,87,0.00,,---,0.01,VWS V14.01,2013-06-18 18:07:00,
2013-06-18 14:12:00,60.4,55.5,29.89,NE,56,4.0,12.0,84,0.00,,---,0.01,VWS V14.01,2013-06-18 18:12:00,
2013-06-18 14:17:00,60.3,55.5,29.90,NNE,13,8.0,10.0,84,0.00,,---,0.01,VWS V14.01,2013-06-18 18:17:00,
2013-06-18 14:22:00,60.5,56.0,29.90,NNW,340,6.0,10.0,85,0.00,,---,0.01,VWS V14.01,2013-06-18 18:22:00,
2013-06-18 14:27:00,60.4,55.9,29.90,North,6,10.0,12.0,85,0.00,,---,0.01,VWS V14.01,2013-06-18 18:27:00,
2013-06-18 14:32:00,60.3,56.1,29.90,North,354,4.0,10.0,86,0.00,,---,0.01,VWS V14.01,2013-06-18 18:32:00,
2013-06-18 14:37:00,59.9,55.1,29.90,NNW,345,5.0,10.0,84,0.00,,---,0.01,VWS V14.01,2013-06-18 18:37:00,
2013-06-18 14:42:00,60.1,55.9,29.91,NW,304,5.0,9.0,86,0.00,,---,0.01,VWS V14.01,2013-06-18 18:42:00,
2013-06-18 14:47:00,60.3,55.8,29.91,ENE,57,5.0,5.0,85,0.00,,---,0.01,VWS V14.01,2013-06-18 18:47:00,
2013-06-18 14:53:00,59.7,54.9,29.91,ESE,117,3.0,9.0,84,0.00,,---,0.01,VWS V14.01,2013-06-18 18:53:00,
2013-06-18 14:58:00,59.4,54.9,29.91,North,352,4.0,9.0,85,0.00,,---,0.01,VWS V14.01,2013-06-18 18:58:00,
2013-06-18 15:03:00,59.4,55.2,29.91,NNE,31,3.0,8.0,86,0.00,,---,0.01,VWS V14.01,2013-06-18 19:03:00,
2013-06-18 15:08:00,59.4,54.9,29.91,ESE,105,3.0,8.0,85,0.00,,---,0.01,VWS V14.01,2013-06-18 19:08:00,
2013-06-18 15:13:00,59.6,55.4,29.91,NW,305,0.0,6.0,86,0.00,,---,0.01,VWS V14.01,2013-06-18 19:13:00,
2013-06-18 15:18:00,59.9,55.1,29.91,NNE,15,9.0,10.0,84,0.00,,---,0.01,VWS V14.01,2013-06-18 19:18:00,
2013-06-18 15:23:00,59.5,55.0,29.90,ENE,60,5.0,8.0,85,0.00,,---,0.01,VWS V14.01,2013-06-18 19:23:00,
2013-06-18 15:28:00,59.9,55.7,29.90,NNW,328,5.0,6.0,86,0.00,,---,0.01,VWS V14.01,2013-06-18 19:28:00,
2013-06-18 15:33:00,59.6,54.4,29.90,NE,39,4.0,8.0,83,0.00,,---,0.01,VWS V14.01,2013-06-18 19:33:00,
2013-06-18 15:38:00,59.5,53.7,29.90,ENE,76,1.0,11.0,81,0.00,,---,0.01,VWS V14.01,2013-06-18 19:38:00,
2013-06-18 15:43:00,59.0,53.2,29.90,NE,54,3.0,10.0,81,0.00,,---,0.01,VWS V14.01,2013-06-18 19:43:00,
2013-06-18 15:49:00,58.9,53.1,29.90,ENE,64,3.0,9.0,81,0.00,,---,0.01,VWS V14.01,2013-06-18 19:49:00,
2013-06-18 15:54:00,59.2,53.4,29.90,North,358,8.0,8.0,81,0.00,,---,0.01,VWS V14.01,2013-06-18 19:54:00,
2013-06-18 16:00:00,58.7,52.9,29.90,NNE,15,5.0,11.0,81,0.00,,---,0.01,VWS V14.01,2013-06-18 20:00:00,
2013-06-18 16:05:00,58.3,52.5,29.90,NNE,20,3.0,13.0,81,0.00,,---,0.01,VWS V14.01,2013-06-18 20:05:00,
2013-06-18 16:10:00,58.2,52.7,29.90,NNE,29,5.0,11.0,82,0.00,,---,0.01,VWS V14.01,2013-06-18 20:10:00,
2013-06-18 16:15:00,58.0,52.9,29.90,NE,47,1.0,13.0,83,0.00,,---,0.01,VWS V14.01,2013-06-18 20:15:00,
2013-06-18 16:20:00,57.8,52.3,29.90,NE,35,6.0,13.0,82,0.00,,---,0.01,VWS V14.01,2013-06-18 20:20:00,
2013-06-18 16:25:00,57.4,52.0,29.90,NNE,25,4.0,11.0,82,0.00,,---,0.01,VWS V14.01,2013-06-18 20:25:00,
2013-06-18 16:30:00,57.2,52.1,29.90,NE,51,3.0,10.0,83,0.00,,---,0.01,VWS V14.01,2013-06-18 20:30:00,
2013-06-18 16:35:00,57.3,52.8,29.90,North,356,5.0,8.0,85,0.00,,---,0.01,VWS V14.01,2013-06-18 20:35:00,
2013-06-18 16:40:00,57.3,52.8,29.91,NNW,347,3.0,11.0,85,0.00,,---,0.01,VWS V14.01,2013-06-18 20:40:00,
2013-06-18 16:45:00,57.0,52.2,29.91,NNW,347,4.0,11.0,84,0.00,,---,0.01,VWS V14.01,2013-06-18 20:45:00,
2013-06-18 16:51:00,56.7,52.2,29.91,NE,48,3.0,10.0,85,0.00,,---,0.01,VWS V14.01,2013-06-18 20:51:00,
2013-06-18 16:57:00,56.5,52.0,29.92,NE,56,3.0,9.0,85,0.00,,---,0.01,VWS V14.01,2013-06-18 20:57:00,
2013-06-18 17:02:00,56.2,52.1,29.91,NE,39,4.0,8.0,86,0.00,,---,0.01,VWS V14.01,2013-06-18 21:02:00,
2013-06-18 17:07:00,56.3,52.2,29.91,North,349,3.0,7.0,86,0.00,,---,0.01,VWS V14.01,2013-06-18 21:07:00,
2013-06-18 17:13:00,56.3,52.2,29.91,NNE,23,7.0,9.0,86,0.00,,---,0.01,VWS V14.01,2013-06-18 21:13:00,
2013-06-18 17:18:00,56.2,52.4,29.91,NNW,330,7.0,9.0,87,0.00,,---,0.01,VWS V14.01,2013-06-18 21:18:00,
2013-06-18 17:23:00,56.1,52.3,29.91,NE,34,5.0,12.0,87,0.00,,---,0.01,VWS V14.01,2013-06-18 21:23:00,
2013-06-18 17:28:00,56.0,52.2,29.91,NNE,25,7.0,10.0,87,0.00,,---,0.01,VWS V14.01,2013-06-18 21:28:00,
2013-06-18 17:33:00,55.7,51.9,29.92,NNW,340,5.0,10.0,87,0.00,,---,0.01,VWS V14.01,2013-06-18 21:33:00,
2013-06-18 17:38:00,55.6,52.1,29.91,NE,53,5.0,11.0,88,0.00,,---,0.01,VWS V14.01,2013-06-18 21:38:00,
2013-06-18 17:43:00,55.6,52.1,29.91,NNE,25,5.0,11.0,88,0.00,,---,0.01,VWS V14.01,2013-06-18 21:43:00,
2013-06-18 17:49:00,55.6,52.1,29.91,ENE,76,3.0,13.0,88,0.00,,---,0.01,VWS V14.01,2013-06-18 21:49:00,
2013-06-18 17:54:00,55.7,51.9,29.91,North,5,3.0,10.0,87,0.00,,---,0.01,VWS V14.01,2013-06-18 21:54:00,
2013-06-18 18:00:00,55.7,51.9,29.91,NNE,19,5.0,10.0,87,0.00,,---,0.01,VWS V14.01,2013-06-18 22:00:00,
2013-06-18 18:05:00,55.7,52.2,29.91,NNW,342,3.0,7.0,88,0.00,,---,0.01,VWS V14.01,2013-06-18 22:05:00,
2013-06-18 18:10:00,55.5,51.7,29.91,North,352,4.0,11.0,87,0.00,,---,0.01,VWS V14.01,2013-06-18 22:10:00,
2013-06-18 18:16:00,55.5,52.3,29.91,NNW,347,2.0,6.0,89,0.00,,---,0.01,VWS V14.01,2013-06-18 22:16:00,
2013-06-18 18:22:00,55.6,52.1,29.92,NE,45,3.0,6.0,88,0.00,,---,0.01,VWS V14.01,2013-06-18 22:22:00,
2013-06-18 18:28:00,55.8,52.0,29.91,NNW,340,1.0,4.0,87,0.00,,---,0.01,VWS V14.01,2013-06-18 22:28:00,
2013-06-18 18:33:00,55.7,51.0,29.92,ENE,69,4.0,8.0,84,0.00,,---,0.01,VWS V14.01,2013-06-18 22:33:00,
2013-06-18 18:38:00,55.6,50.5,29.92,NE,44,6.0,7.0,83,0.00,,---,0.01,VWS V14.01,2013-06-18 22:38:00,
2013-06-18 18:43:00,55.4,50.3,29.92,NNE,25,4.0,7.0,83,0.00,,---,0.01,VWS V14.01,2013-06-18 22:43:00,
2013-06-18 18:49:00,55.3,50.6,29.92,NNE,29,2.0,5.0,84,0.00,,---,0.01,VWS V14.01,2013-06-18 22:49:00,
2013-06-18 18:54:00,55.3,49.9,29.92,NNE,25,6.0,7.0,82,0.00,,---,0.01,VWS V14.01,2013-06-18 22:54:00,
2013-06-18 19:00:00,55.1,50.0,29.92,NE,35,3.0,9.0,83,0.00,,---,0.01,VWS V14.01,2013-06-18 23:00:00,
2013-06-18 19:06:00,55.1,50.0,29.92,North,356,2.0,8.0,83,0.00,,---,0.01,VWS V14.01,2013-06-18 23:06:00,
2013-06-18 19:11:00,55.1,50.4,29.92,NE,39,3.0,5.0,84,0.00,,---,0.01,VWS V14.01,2013-06-18 23:11:00,
2013-06-18 19:16:00,55.0,49.9,29.92,North,356,4.0,5.0,83,0.00,,---,0.01,VWS V14.01,2013-06-18 23:16:00,
2013-06-18 19:21:00,54.9,49.5,29.92,North,354,3.0,6.0,82,0.00,,---,0.01,VWS V14.01,2013-06-18 23:21:00,
2013-06-18 19:27:00,54.9,49.8,29.92,NE,39,2.0,7.0,83,0.00,,---,0.01,VWS V14.01,2013-06-18 23:27:00,
2013-06-18 19:33:00,54.8,49.4,29.92,NW,321,2.0,4.0,82,0.00,,---,0.01,VWS V14.01,2013-06-18 23:33:00,
2013-06-18 19:38:00,54.8,49.1,29.93,North,354,2.0,8.0,81,0.00,,---,0.01,VWS V14.01,2013-06-18 23:38:00,
2013-06-18 19:44:00,54.8,48.8,29.93,NW,320,2.0,5.0,80,0.00,,---,0.01,VWS V14.01,2013-06-18 23:44:00,
2013-06-18 19:50:00,54.9,48.9,29.92,NNE,20,2.0,6.0,80,0.00,,---,0.01,VWS V14.01,2013-06-18 23:50:00,
2013-06-18 19:55:00,55.3,48.9,29.92,North,9,3.0,6.0,79,0.00,,---,0.01,VWS V14.01,2013-06-18 23:55:00,
2013-06-18 20:00:00,55.2,48.8,29.92,NNE,21,2.0,6.0,79,0.00,,---,0.01,VWS V14.01,2013-06-19 00:00:00,
2013-06-18 20:05:00,55.0,48.6,29.91,NNE,13,6.0,6.0,79,0.00,,---,0.01,VWS V14.01,2013-06-19 00:05:00,
2013-06-18 20:11:00,55.0,48.6,29.92,NNE,27,2.0,7.0,79,0.00,,---,0.01,VWS V14.01,2013-06-19 00:11:00,
2013-06-18 20:17:00,55.2,48.5,29.92,NNW,347,1.0,6.0,78,0.00,,---,0.01,VWS V14.01,2013-06-19 00:17:00,
2013-06-18 20:23:00,55.1,48.4,29.91,NNE,22,2.0,5.0,78,0.00,,---,0.01,VWS V14.01,2013-06-19 00:23:00,
2013-06-18 20:29:00,54.7,48.0,29.92,North,1,2.0,4.0,78,0.00,,---,0.01,VWS V14.01,2013-06-19 00:29:00,
2013-06-18 20:35:00,54.2,47.8,29.92,NW,314,1.0,3.0,79,0.00,,---,0.01,VWS V14.01,2013-06-19 00:35:00,
2013-06-18 20:41:00,53.8,47.5,29.92,North,354,2.0,4.0,79,0.00,,---,0.01,VWS V14.01,2013-06-19 00:41:00,
2013-06-18 20:46:00,53.5,47.5,29.92,NNW,328,1.0,3.0,80,0.00,,---,0.01,VWS V14.01,2013-06-19 00:46:00,
2013-06-18 20:51:00,53.3,47.3,29.92,NW,322,2.0,4.0,80,0.00,,---,0.01,VWS V14.01,2013-06-19 00:51:00,
2013-06-18 20:56:00,53.0,47.7,29.92,NW,316,2.0,3.0,82,0.00,,---,0.01,VWS V14.01,2013-06-19 00:56:00,
2013-06-18 21:02:00,52.7,47.7,29.93,NW,316,2.0,5.0,83,0.00,,---,0.01,VWS V14.01,2013-06-19 01:02:00,
2013-06-18 21:07:00,52.5,47.5,29.93,NE,50,2.0,5.0,83,0.00,,---,0.01,VWS V14.01,2013-06-19 01:07:00,
2013-06-18 21:12:00,52.5,47.5,29.93,NNW,329,2.0,4.0,83,0.00,,---,0.01,VWS V14.01,2013-06-19 01:12:00,
2013-06-18 21:17:00,52.6,47.3,29.93,WNW,300,2.0,6.0,82,0.00,,---,0.01,VWS V14.01,2013-06-19 01:17:00,
2013-06-18 21:22:00,52.6,47.3,29.93,NNE,22,4.0,5.0,82,0.00,,---,0.01,VWS V14.01,2013-06-19 01:22:00,
2013-06-18 21:27:00,52.5,47.2,29.93,NNE,15,5.0,5.0,82,0.00,,---,0.01,VWS V14.01,2013-06-19 01:27:00,
2013-06-18 21:33:00,52.5,47.5,29.93,NNW,336,2.0,5.0,83,0.00,,---,0.01,VWS V14.01,2013-06-19 01:33:00,
2013-06-18 21:39:00,52.1,47.4,29.93,NW,311,3.0,4.0,84,0.00,,---,0.01,VWS V14.01,2013-06-19 01:39:00,
2013-06-18 21:44:00,51.7,47.3,29.94,NNW,328,1.0,4.0,85,0.00,,---,0.01,VWS V14.01,2013-06-19 01:44:00,
2013-06-18 21:50:00,51.3,47.3,29.94,NW,321,2.0,4.0,86,0.00,,---,0.01,VWS V14.01,2013-06-19 01:50:00,
2013-06-18 21:56:00,51.0,47.3,29.94,NW,309,0.0,3.0,87,0.00,,---,0.01,VWS V14.01,2013-06-19 01:56:00,
2013-06-18 22:01:00,50.9,47.5,29.94,NW,319,1.0,3.0,88,0.00,,---,0.01,VWS V14.01,2013-06-19 02:01:00,
2013-06-18 22:07:00,50.8,47.7,29.94,North,356,2.0,3.0,89,0.00,,---,0.01,VWS V14.01,2013-06-19 02:07:00,
2013-06-18 22:13:00,50.4,47.3,29.94,NW,307,2.0,2.0,89,0.00,,---,0.01,VWS V14.01,2013-06-19 02:13:00,
2013-06-18 22:18:00,50.3,47.5,29.94,NW,322,1.0,3.0,90,0.00,,---,0.01,VWS V14.01,2013-06-19 02:18:00,
2013-06-18 22:23:00,50.1,47.3,29.94,NW,314,2.0,3.0,90,0.00,,---,0.01,VWS V14.01,2013-06-19 02:23:00,
2013-06-18 22:28:00,50.2,47.4,29.94,NNW,328,2.0,3.0,90,0.00,,---,0.01,VWS V14.01,2013-06-19 02:28:00,
2013-06-18 22:33:00,50.2,47.4,29.94,NW,324,2.0,3.0,90,0.00,,---,0.01,VWS V14.01,2013-06-19 02:33:00,
2013-06-18 22:38:00,50.0,47.5,29.94,NW,319,1.0,3.0,91,0.00,,---,0.01,VWS V14.01,2013-06-19 02:38:00,
2013-06-18 22:44:00,49.5,47.0,29.94,NW,322,0.0,1.0,91,0.00,,---,0.01,VWS V14.01,2013-06-19 02:44:00,
2013-06-18 22:49:00,49.3,47.1,29.94,NW,308,1.0,4.0,92,0.00,,---,0.01,VWS V14.01,2013-06-19 02:49:00,
2013-06-18 22:54:00,49.4,47.2,29.94,NNE,18,2.0,3.0,92,0.00,,---,0.01,VWS V14.01,2013-06-19 02:54:00,
2013-06-18 22:59:00,49.6,47.4,29.94,NNW,328,4.0,4.0,92,0.00,,---,0.01,VWS V14.01,2013-06-19 02:59:00,
2013-06-18 23:04:00,49.9,47.4,29.94,NNW,332,1.0,4.0,91,0.00,,---,0.01,VWS V14.01,2013-06-19 03:04:00,
2013-06-18 23:09:00,50.1,47.6,29.95,NNW,336,1.0,3.0,91,0.00,,---,0.01,VWS V14.01,2013-06-19 03:09:00,
2013-06-18 23:15:00,50.2,47.4,29.95,North,4,3.0,4.0,90,0.00,,---,0.01,VWS V14.01,2013-06-19 03:15:00,
2013-06-18 23:20:00,50.3,47.5,29.95,NW,322,2.0,4.0,90,0.00,,---,0.01,VWS V14.01,2013-06-19 03:20:00,
2013-06-18 23:25:00,50.4,47.3,29.95,NW,326,2.0,4.0,89,0.00,,---,0.01,VWS V14.01,2013-06-19 03:25:00,
2013-06-18 23:31:00,50.4,47.3,29.95,NW,316,3.0,4.0,89,0.00,,---,0.01,VWS V14.01,2013-06-19 03:31:00,
2013-06-18 23:36:00,50.5,47.4,29.95,NNW,335,1.0,3.0,89,0.00,,---,0.01,VWS V14.01,2013-06-19 03:36:00,
2013-06-18 23:42:00,50.4,47.3,29.95,North,11,1.0,2.0,89,0.00,,---,0.01,VWS V14.01,2013-06-19 03:42:00,
2013-06-18 23:47:00,50.4,47.3,29.95,NW,305,1.0,3.0,89,0.00,,---,0.01,VWS V14.01,2013-06-19 03:47:00,
2013-06-18 23:52:00,50.4,47.3,29.95,North,1,2.0,3.0,89,0.00,,---,0.01,VWS V14.01,2013-06-19 03:52:00,
2013-06-18 23:57:00,50.4,47.3,29.96,NNW,328,1.0,3.0,89,0.00,,---,0.01,VWS V14.01,2013-06-19 03:57:00,